Airfield :
LOGIN :

Register | Disclaimer

   EN    FR    IT 

 










Legend :    VFR   Marginal VFR   IFR   Intensive IFR   Very Intensive IFR
Visi :
Ceiling :
>= 8 km
>= 3000ft
5 to 8 km
1000 to 3000 ft
1500m to 5 km
500 to 1000 ft
800 to 1500m
200 to 500 ft
< 800m
< 200 ft
Symbols :   Thunderstorms  Fog  Heavy snow  Heavy precipitations  Wind > 20 kt
SIGMETs :     Misc.  Thunderstorms  Icing  Turbulence  Mountain Waves  Volcanic Ashes






- Airport Elevation : 353 ft
- IATA code : LIN


LIML - Milano Linate

CURRENT METAR :
  • 261950Z 30002KT CAVOK 05/03 Q1020 NOSIG

EXPIRED METARs :
  • 261920Z 26003KT CAVOK 05/03 Q1020 NOSIG
  • 261850Z 26003KT CAVOK 06/03 Q1020 NOSIG
  • 261820Z 26004KT CAVOK 06/03 Q1020 NOSIG
  • 261750Z 26003KT CAVOK 07/03 Q1020 NOSIG
  • 261720Z 26004KT 8000 NSC 07/03 Q1020 BECMG 2000 BR

TAF TAF LIML
Valid from the 26 at 18:00 until the 27 at 18:00 UTC


261700Z 2618/2718 VRB05KT 7000 SCT060
BECMG 2621/2624 1500 BCFG
TEMPO 2702/2708 0500 FG BKN005
BECMG 2708/2711 6000



MET'MAP, your aeronautical weather chart ! - Copyright ORBIFLY December 2007 - Disclaimer

ORBIFLY MET'MAP TEAM :

Programming & Development : Alexandra Zaïnal
Concept & original design : Baudouin d'Aumeries
Assistance for programming : Marc-Olivier Méhu
Technical & hardware support : Manuel Goepfert

Contact : metmap@orbifly.com




SOURCES & CREDITS :

   NOAA